sensor_id;sensor_type;location;lat;lon;timestamp;temperature;humidity
63537;DHT22;49686;51.880;5.632;2023-02-17T00:00:11;8.00;99.90
63537;DHT22;49686;51.880;5.632;2023-02-17T00:02:38;8.10;99.90
63537;DHT22;49686;51.880;5.632;2023-02-17T00:05:05;8.10;99.90
63537;DHT22;49686;51.880;5.632;2023-02-17T00:07:32;8.10;99.90
63537;DHT22;49686;51.880;5.632;2023-02-17T00:09:59;8.00;99.90
63537;DHT22;49686;51.880;5.632;2023-02-17T00:12:26;8.00;99.90
63537;DHT22;49686;51.880;5.632;2023-02-17T00:14:54;8.00;99.90
63537;DHT22;49686;51.880;5.632;2023-02-17T00:17:21;7.90;99.90
63537;DHT22;49686;51.880;5.632;2023-02-17T00:19:48;7.90;99.90
63537;DHT22;49686;51.880;5.632;2023-02-17T00:22:15;7.90;99.90
63537;DHT22;49686;51.880;5.632;2023-02-17T00:24:42;7.90;99.90
63537;DHT22;49686;51.880;5.632;2023-02-17T00:27:09;7.90;99.90
63537;DHT22;49686;51.880;5.632;2023-02-17T00:29:36;7.90;99.90
63537;DHT22;49686;51.880;5.632;2023-02-17T00:32:04;7.90;99.90
63537;DHT22;49686;51.880;5.632;2023-02-17T00:34:31;7.90;99.90
63537;DHT22;49686;51.880;5.632;2023-02-17T00:36:58;7.90;99.90
63537;DHT22;49686;51.880;5.632;2023-02-17T00:39:25;8.00;99.90
63537;DHT22;49686;51.880;5.632;2023-02-17T00:41:52;8.00;99.90
63537;DHT22;49686;51.880;5.632;2023-02-17T00:44:20;7.90;99.90
63537;DHT22;49686;51.880;5.632;2023-02-17T00:46:47;8.00;99.90
63537;DHT22;49686;51.880;5.632;2023-02-17T00:49:19;7.90;99.90
63537;DHT22;49686;51.880;5.632;2023-02-17T00:51:46;7.90;99.90
63537;DHT22;49686;51.880;5.632;2023-02-17T00:54:14;7.90;99.90
63537;DHT22;49686;51.880;5.632;2023-02-17T00:56:41;8.00;99.90
63537;DHT22;49686;51.880;5.632;2023-02-17T00:59:09;7.90;99.90
63537;DHT22;49686;51.880;5.632;2023-02-17T01:01:36;8.00;99.90
63537;DHT22;49686;51.880;5.632;2023-02-17T01:04:06;8.00;99.90
63537;DHT22;49686;51.880;5.632;2023-02-17T01:06:35;8.00;99.90
63537;DHT22;49686;51.880;5.632;2023-02-17T01:09:04;8.10;99.90
63537;DHT22;49686;51.880;5.632;2023-02-17T01:11:34;8.00;99.90
63537;DHT22;49686;51.880;5.632;2023-02-17T01:14:03;8.00;99.90
63537;DHT22;49686;51.880;5.632;2023-02-17T01:16:32;8.10;99.90
63537;DHT22;49686;51.880;5.632;2023-02-17T01:19:00;8.10;99.90
63537;DHT22;49686;51.880;5.632;2023-02-17T01:21:28;8.10;99.90
63537;DHT22;49686;51.880;5.632;2023-02-17T01:23:58;8.10;99.90
63537;DHT22;49686;51.880;5.632;2023-02-17T01:26:27;8.10;99.90
63537;DHT22;49686;51.880;5.632;2023-02-17T01:28:54;8.10;99.90
63537;DHT22;49686;51.880;5.632;2023-02-17T01:31:22;8.10;99.90
63537;DHT22;49686;51.880;5.632;2023-02-17T01:33:49;8.10;99.90
63537;DHT22;49686;51.880;5.632;2023-02-17T01:36:17;8.10;99.90
63537;DHT22;49686;51.880;5.632;2023-02-17T01:38:45;8.10;99.90
63537;DHT22;49686;51.880;5.632;2023-02-17T01:41:15;8.10;99.90
63537;DHT22;49686;51.880;5.632;2023-02-17T01:46:24;8.20;99.90
63537;DHT22;49686;51.880;5.632;2023-02-17T01:48:51;8.10;99.90
63537;DHT22;49686;51.880;5.632;2023-02-17T01:51:21;8.10;99.90
63537;DHT22;49686;51.880;5.632;2023-02-17T01:53:51;8.10;99.90
63537;DHT22;49686;51.880;5.632;2023-02-17T01:56:21;8.10;99.90
63537;DHT22;49686;51.880;5.632;2023-02-17T01:58:54;8.20;99.90
63537;DHT22;49686;51.880;5.632;2023-02-17T02:01:23;8.10;99.90
63537;DHT22;49686;51.880;5.632;2023-02-17T02:03:50;8.10;99.90
63537;DHT22;49686;51.880;5.632;2023-02-17T02:06:20;8.10;99.90
63537;DHT22;49686;51.880;5.632;2023-02-17T02:08:53;8.10;99.90
63537;DHT22;49686;51.880;5.632;2023-02-17T02:11:23;8.10;99.90
63537;DHT22;49686;51.880;5.632;2023-02-17T02:13:50;8.00;99.90
63537;DHT22;49686;51.880;5.632;2023-02-17T02:16:20;8.10;99.90
63537;DHT22;49686;51.880;5.632;2023-02-17T02:18:58;8.10;99.90
63537;DHT22;49686;51.880;5.632;2023-02-17T02:22:08;8.20;99.90
63537;DHT22;49686;51.880;5.632;2023-02-17T02:24:53;8.20;99.90
63537;DHT22;49686;51.880;5.632;2023-02-17T02:27:40;8.10;99.90
63537;DHT22;49686;51.880;5.632;2023-02-17T02:30:32;8.00;99.90
63537;DHT22;49686;51.880;5.632;2023-02-17T02:33:08;8.10;99.90
63537;DHT22;49686;51.880;5.632;2023-02-17T02:35:45;8.10;99.90
63537;DHT22;49686;51.880;5.632;2023-02-17T02:38:18;8.10;99.90
63537;DHT22;49686;51.880;5.632;2023-02-17T02:40:49;8.10;99.90
63537;DHT22;49686;51.880;5.632;2023-02-17T02:43:18;8.10;99.90
63537;DHT22;49686;51.880;5.632;2023-02-17T02:45:45;8.10;99.90
63537;DHT22;49686;51.880;5.632;2023-02-17T02:48:13;8.00;99.90
63537;DHT22;49686;51.880;5.632;2023-02-17T02:51:04;8.00;99.90
63537;DHT22;49686;51.880;5.632;2023-02-17T02:53:55;8.10;99.90
63537;DHT22;49686;51.880;5.632;2023-02-17T02:56:41;8.10;99.90
63537;DHT22;49686;51.880;5.632;2023-02-17T02:59:21;8.10;99.90
63537;DHT22;49686;51.880;5.632;2023-02-17T03:01:55;8.00;99.90
63537;DHT22;49686;51.880;5.632;2023-02-17T03:04:32;8.00;99.90
63537;DHT22;49686;51.880;5.632;2023-02-17T03:07:06;8.10;99.90
63537;DHT22;49686;51.880;5.632;2023-02-17T03:09:34;8.00;99.90
63537;DHT22;49686;51.880;5.632;2023-02-17T03:12:01;8.00;99.90
63537;DHT22;49686;51.880;5.632;2023-02-17T03:14:35;8.00;99.90
63537;DHT22;49686;51.880;5.632;2023-02-17T03:17:03;8.00;99.90
63537;DHT22;49686;51.880;5.632;2023-02-17T03:19:31;8.00;99.90
63537;DHT22;49686;51.880;5.632;2023-02-17T03:22:02;8.00;99.90
63537;DHT22;49686;51.880;5.632;2023-02-17T03:24:31;8.00;99.90
63537;DHT22;49686;51.880;5.632;2023-02-17T03:26:58;8.00;99.90
63537;DHT22;49686;51.880;5.632;2023-02-17T03:29:25;8.00;99.90
63537;DHT22;49686;51.880;5.632;2023-02-17T03:31:52;8.00;99.90
63537;DHT22;49686;51.880;5.632;2023-02-17T03:34:19;7.90;99.90
63537;DHT22;49686;51.880;5.632;2023-02-17T03:36:48;8.00;99.90
63537;DHT22;49686;51.880;5.632;2023-02-17T03:39:14;8.00;99.90
63537;DHT22;49686;51.880;5.632;2023-02-17T03:41:41;8.00;99.90
63537;DHT22;49686;51.880;5.632;2023-02-17T03:44:08;8.00;99.90
63537;DHT22;49686;51.880;5.632;2023-02-17T03:46:37;8.00;99.90
63537;DHT22;49686;51.880;5.632;2023-02-17T03:49:04;8.00;99.90
63537;DHT22;49686;51.880;5.632;2023-02-17T03:51:31;8.00;99.90
63537;DHT22;49686;51.880;5.632;2023-02-17T03:53:59;8.00;99.90
63537;DHT22;49686;51.880;5.632;2023-02-17T03:56:26;7.90;99.90
63537;DHT22;49686;51.880;5.632;2023-02-17T03:58:53;8.00;99.90
63537;DHT22;49686;51.880;5.632;2023-02-17T04:01:20;8.00;99.90
63537;DHT22;49686;51.880;5.632;2023-02-17T04:03:48;8.00;99.90
63537;DHT22;49686;51.880;5.632;2023-02-17T04:06:14;8.00;99.90
63537;DHT22;49686;51.880;5.632;2023-02-17T04:08:41;8.00;99.90
63537;DHT22;49686;51.880;5.632;2023-02-17T04:11:10;8.00;99.90
63537;DHT22;49686;51.880;5.632;2023-02-17T04:13:37;8.00;99.90
63537;DHT22;49686;51.880;5.632;2023-02-17T04:16:06;8.00;99.90
63537;DHT22;49686;51.880;5.632;2023-02-17T04:18:33;8.00;99.90
63537;DHT22;49686;51.880;5.632;2023-02-17T04:21:00;8.00;99.90
63537;DHT22;49686;51.880;5.632;2023-02-17T04:23:27;8.00;99.90
63537;DHT22;49686;51.880;5.632;2023-02-17T04:25:54;8.00;99.90
63537;DHT22;49686;51.880;5.632;2023-02-17T04:28:22;8.00;99.90
63537;DHT22;49686;51.880;5.632;2023-02-17T04:30:50;8.10;99.90
63537;DHT22;49686;51.880;5.632;2023-02-17T04:33:17;8.00;99.90
63537;DHT22;49686;51.880;5.632;2023-02-17T04:35:44;8.00;99.90
63537;DHT22;49686;51.880;5.632;2023-02-17T04:38:12;8.00;99.90
63537;DHT22;49686;51.880;5.632;2023-02-17T04:40:40;8.00;99.90
63537;DHT22;49686;51.880;5.632;2023-02-17T04:43:07;8.00;99.90
63537;DHT22;49686;51.880;5.632;2023-02-17T04:45:36;8.00;99.90
63537;DHT22;49686;51.880;5.632;2023-02-17T04:48:03;8.10;99.90
63537;DHT22;49686;51.880;5.632;2023-02-17T04:50:30;8.00;99.90
63537;DHT22;49686;51.880;5.632;2023-02-17T04:52:57;8.00;99.90
63537;DHT22;49686;51.880;5.632;2023-02-17T04:55:24;8.00;99.90
63537;DHT22;49686;51.880;5.632;2023-02-17T04:57:51;8.10;99.90
63537;DHT22;49686;51.880;5.632;2023-02-17T05:00:18;8.00;99.90
63537;DHT22;49686;51.880;5.632;2023-02-17T05:02:48;7.90;99.90
63537;DHT22;49686;51.880;5.632;2023-02-17T05:05:15;7.80;99.90
63537;DHT22;49686;51.880;5.632;2023-02-17T05:07:42;7.70;99.90
63537;DHT22;49686;51.880;5.632;2023-02-17T05:10:09;7.80;99.90
63537;DHT22;49686;51.880;5.632;2023-02-17T05:12:36;7.70;99.90
63537;DHT22;49686;51.880;5.632;2023-02-17T05:15:04;7.60;99.90
63537;DHT22;49686;51.880;5.632;2023-02-17T05:17:31;7.70;99.90
63537;DHT22;49686;51.880;5.632;2023-02-17T05:19:59;7.70;99.90
63537;DHT22;49686;51.880;5.632;2023-02-17T05:22:27;7.70;99.90
63537;DHT22;49686;51.880;5.632;2023-02-17T05:24:55;7.70;99.90
63537;DHT22;49686;51.880;5.632;2023-02-17T05:27:22;7.70;99.90
63537;DHT22;49686;51.880;5.632;2023-02-17T05:29:51;7.70;99.90
63537;DHT22;49686;51.880;5.632;2023-02-17T05:32:17;7.80;99.90
63537;DHT22;49686;51.880;5.632;2023-02-17T05:34:44;7.80;99.90
63537;DHT22;49686;51.880;5.632;2023-02-17T05:37:12;7.80;99.90
63537;DHT22;49686;51.880;5.632;2023-02-17T05:39:39;7.80;99.90
63537;DHT22;49686;51.880;5.632;2023-02-17T05:42:08;7.80;99.90
63537;DHT22;49686;51.880;5.632;2023-02-17T05:44:36;7.80;99.90
63537;DHT22;49686;51.880;5.632;2023-02-17T05:47:03;7.80;99.90
63537;DHT22;49686;51.880;5.632;2023-02-17T05:49:30;7.80;99.90
63537;DHT22;49686;51.880;5.632;2023-02-17T05:51:56;7.90;99.90
63537;DHT22;49686;51.880;5.632;2023-02-17T05:54:24;7.90;99.90
63537;DHT22;49686;51.880;5.632;2023-02-17T05:56:52;7.90;99.90
63537;DHT22;49686;51.880;5.632;2023-02-17T05:59:19;7.80;99.90
63537;DHT22;49686;51.880;5.632;2023-02-17T06:01:46;7.90;99.90
63537;DHT22;49686;51.880;5.632;2023-02-17T06:04:13;7.80;99.90
63537;DHT22;49686;51.880;5.632;2023-02-17T06:06:40;7.80;99.90
63537;DHT22;49686;51.880;5.632;2023-02-17T06:09:07;7.80;99.90
63537;DHT22;49686;51.880;5.632;2023-02-17T06:11:35;7.80;99.90
63537;DHT22;49686;51.880;5.632;2023-02-17T06:14:02;7.80;99.90
63537;DHT22;49686;51.880;5.632;2023-02-17T06:16:29;7.80;99.90
63537;DHT22;49686;51.880;5.632;2023-02-17T06:18:56;7.90;99.90
63537;DHT22;49686;51.880;5.632;2023-02-17T06:21:23;7.80;99.90
63537;DHT22;49686;51.880;5.632;2023-02-17T06:23:49;7.90;99.90
63537;DHT22;49686;51.880;5.632;2023-02-17T06:26:16;7.80;99.90
63537;DHT22;49686;51.880;5.632;2023-02-17T06:28:44;7.80;99.90
63537;DHT22;49686;51.880;5.632;2023-02-17T06:31:11;7.90;99.90
63537;DHT22;49686;51.880;5.632;2023-02-17T06:33:39;7.80;99.90
63537;DHT22;49686;51.880;5.632;2023-02-17T06:36:09;7.80;99.90
63537;DHT22;49686;51.880;5.632;2023-02-17T06:38:36;7.80;99.90
63537;DHT22;49686;51.880;5.632;2023-02-17T06:41:03;7.80;99.90
63537;DHT22;49686;51.880;5.632;2023-02-17T06:43:29;7.80;99.90
63537;DHT22;49686;51.880;5.632;2023-02-17T06:45:58;7.80;99.90
63537;DHT22;49686;51.880;5.632;2023-02-17T06:48:25;7.90;99.90
63537;DHT22;49686;51.880;5.632;2023-02-17T06:50:51;7.90;99.90
63537;DHT22;49686;51.880;5.632;2023-02-17T06:53:18;7.90;99.90
63537;DHT22;49686;51.880;5.632;2023-02-17T06:55:45;7.90;99.90
63537;DHT22;49686;51.880;5.632;2023-02-17T06:58:12;7.90;99.90
63537;DHT22;49686;51.880;5.632;2023-02-17T07:00:39;7.90;99.90
63537;DHT22;49686;51.880;5.632;2023-02-17T07:03:07;7.90;99.90
63537;DHT22;49686;51.880;5.632;2023-02-17T07:05:34;7.90;99.90
63537;DHT22;49686;51.880;5.632;2023-02-17T07:08:02;8.00;99.90
63537;DHT22;49686;51.880;5.632;2023-02-17T07:10:28;8.00;99.90
63537;DHT22;49686;51.880;5.632;2023-02-17T07:12:55;8.00;99.90
63537;DHT22;49686;51.880;5.632;2023-02-17T07:15:22;8.00;99.90
63537;DHT22;49686;51.880;5.632;2023-02-17T07:17:49;8.10;99.90
63537;DHT22;49686;51.880;5.632;2023-02-17T07:20:18;8.10;99.90
63537;DHT22;49686;51.880;5.632;2023-02-17T07:22:44;8.10;99.90
63537;DHT22;49686;51.880;5.632;2023-02-17T07:25:11;8.10;99.90
63537;DHT22;49686;51.880;5.632;2023-02-17T07:27:38;8.10;99.90
63537;DHT22;49686;51.880;5.632;2023-02-17T07:30:06;8.10;99.90
63537;DHT22;49686;51.880;5.632;2023-02-17T07:32:33;8.10;99.90
63537;DHT22;49686;51.880;5.632;2023-02-17T07:35:00;8.10;99.90
63537;DHT22;49686;51.880;5.632;2023-02-17T07:37:28;8.10;99.90
63537;DHT22;49686;51.880;5.632;2023-02-17T07:39:55;8.20;99.90
63537;DHT22;49686;51.880;5.632;2023-02-17T07:42:22;8.10;99.90
63537;DHT22;49686;51.880;5.632;2023-02-17T07:44:49;8.20;99.90
63537;DHT22;49686;51.880;5.632;2023-02-17T07:47:16;8.20;99.90
63537;DHT22;49686;51.880;5.632;2023-02-17T07:49:43;8.30;99.90
63537;DHT22;49686;51.880;5.632;2023-02-17T07:52:10;8.30;99.90
63537;DHT22;49686;51.880;5.632;2023-02-17T07:54:41;8.40;99.90
63537;DHT22;49686;51.880;5.632;2023-02-17T07:57:08;8.40;99.90
63537;DHT22;49686;51.880;5.632;2023-02-17T07:59:34;8.40;99.90
63537;DHT22;49686;51.880;5.632;2023-02-17T08:02:02;8.40;99.90
63537;DHT22;49686;51.880;5.632;2023-02-17T08:04:29;8.40;99.90
63537;DHT22;49686;51.880;5.632;2023-02-17T08:06:56;8.50;99.90
63537;DHT22;49686;51.880;5.632;2023-02-17T08:09:23;8.50;99.90
63537;DHT22;49686;51.880;5.632;2023-02-17T08:11:51;8.50;99.90
63537;DHT22;49686;51.880;5.632;2023-02-17T08:14:20;8.60;99.90
63537;DHT22;49686;51.880;5.632;2023-02-17T08:16:46;8.70;99.90
63537;DHT22;49686;51.880;5.632;2023-02-17T08:19:13;8.70;99.90
63537;DHT22;49686;51.880;5.632;2023-02-17T08:21:40;8.70;99.90
63537;DHT22;49686;51.880;5.632;2023-02-17T08:24:07;8.70;99.90
63537;DHT22;49686;51.880;5.632;2023-02-17T08:26:35;8.70;99.90
63537;DHT22;49686;51.880;5.632;2023-02-17T08:29:04;8.80;99.90
63537;DHT22;49686;51.880;5.632;2023-02-17T08:31:32;8.80;99.90
63537;DHT22;49686;51.880;5.632;2023-02-17T08:34:00;8.80;99.90
63537;DHT22;49686;51.880;5.632;2023-02-17T08:36:28;8.90;99.90
63537;DHT22;49686;51.880;5.632;2023-02-17T08:38:55;9.00;99.90
63537;DHT22;49686;51.880;5.632;2023-02-17T08:41:25;9.00;99.90
63537;DHT22;49686;51.880;5.632;2023-02-17T08:43:52;9.00;99.90
63537;DHT22;49686;51.880;5.632;2023-02-17T08:46:20;9.00;99.90
63537;DHT22;49686;51.880;5.632;2023-02-17T08:48:48;9.00;99.90
63537;DHT22;49686;51.880;5.632;2023-02-17T08:51:17;9.00;99.90
63537;DHT22;49686;51.880;5.632;2023-02-17T08:53:45;9.00;99.90
63537;DHT22;49686;51.880;5.632;2023-02-17T08:56:11;9.00;99.90
63537;DHT22;49686;51.880;5.632;2023-02-17T08:58:38;9.10;99.90
63537;DHT22;49686;51.880;5.632;2023-02-17T09:01:08;9.00;99.90
63537;DHT22;49686;51.880;5.632;2023-02-17T09:03:36;9.10;99.90
63537;DHT22;49686;51.880;5.632;2023-02-17T09:06:04;9.10;99.90
63537;DHT22;49686;51.880;5.632;2023-02-17T09:08:31;9.10;99.90
63537;DHT22;49686;51.880;5.632;2023-02-17T09:10:58;9.10;99.90
63537;DHT22;49686;51.880;5.632;2023-02-17T09:13:25;9.10;99.90
63537;DHT22;49686;51.880;5.632;2023-02-17T09:15:52;9.10;99.90
63537;DHT22;49686;51.880;5.632;2023-02-17T09:18:20;9.10;99.90
63537;DHT22;49686;51.880;5.632;2023-02-17T09:20:48;9.10;99.90
63537;DHT22;49686;51.880;5.632;2023-02-17T09:23:16;9.10;99.90
63537;DHT22;49686;51.880;5.632;2023-02-17T09:25:43;9.10;99.90
63537;DHT22;49686;51.880;5.632;2023-02-17T09:28:10;9.20;99.90
63537;DHT22;49686;51.880;5.632;2023-02-17T09:30:37;9.20;99.90
63537;DHT22;49686;51.880;5.632;2023-02-17T09:33:04;9.30;99.90
63537;DHT22;49686;51.880;5.632;2023-02-17T09:35:31;9.30;99.90
63537;DHT22;49686;51.880;5.632;2023-02-17T09:37:59;9.40;99.90
63537;DHT22;49686;51.880;5.632;2023-02-17T09:40:35;9.40;99.90
63537;DHT22;49686;51.880;5.632;2023-02-17T09:43:03;9.40;99.90
63537;DHT22;49686;51.880;5.632;2023-02-17T09:45:34;9.30;99.90
63537;DHT22;49686;51.880;5.632;2023-02-17T09:48:05;9.30;99.90
63537;DHT22;49686;51.880;5.632;2023-02-17T09:50:38;9.30;99.90
63537;DHT22;49686;51.880;5.632;2023-02-17T09:53:15;9.30;99.90
63537;DHT22;49686;51.880;5.632;2023-02-17T09:55:46;9.40;99.90
63537;DHT22;49686;51.880;5.632;2023-02-17T09:58:18;9.50;99.90
63537;DHT22;49686;51.880;5.632;2023-02-17T10:00:49;9.40;99.90
63537;DHT22;49686;51.880;5.632;2023-02-17T10:03:19;9.40;99.90
63537;DHT22;49686;51.880;5.632;2023-02-17T10:05:52;9.50;99.90
63537;DHT22;49686;51.880;5.632;2023-02-17T10:08:23;9.40;99.90
63537;DHT22;49686;51.880;5.632;2023-02-17T10:10:55;9.30;99.90
63537;DHT22;49686;51.880;5.632;2023-02-17T10:13:24;9.30;99.90
63537;DHT22;49686;51.880;5.632;2023-02-17T10:15:54;9.20;99.90
63537;DHT22;49686;51.880;5.632;2023-02-17T10:18:30;9.20;99.90
63537;DHT22;49686;51.880;5.632;2023-02-17T10:21:03;9.20;99.90
63537;DHT22;49686;51.880;5.632;2023-02-17T10:23:33;9.30;99.90
63537;DHT22;49686;51.880;5.632;2023-02-17T10:26:11;9.30;99.90
63537;DHT22;49686;51.880;5.632;2023-02-17T10:28:48;9.30;99.90
63537;DHT22;49686;51.880;5.632;2023-02-17T10:31:25;9.40;99.90
63537;DHT22;49686;51.880;5.632;2023-02-17T10:34:00;9.40;99.90
63537;DHT22;49686;51.880;5.632;2023-02-17T10:36:36;9.30;99.90
63537;DHT22;49686;51.880;5.632;2023-02-17T10:39:13;9.30;99.90
63537;DHT22;49686;51.880;5.632;2023-02-17T10:41:41;9.30;99.90
63537;DHT22;49686;51.880;5.632;2023-02-17T10:44:13;9.20;99.90
63537;DHT22;49686;51.880;5.632;2023-02-17T10:46:42;9.30;99.90
63537;DHT22;49686;51.880;5.632;2023-02-17T10:49:17;9.20;99.90
63537;DHT22;49686;51.880;5.632;2023-02-17T10:51:45;9.20;99.90
63537;DHT22;49686;51.880;5.632;2023-02-17T10:54:22;9.30;99.90
63537;DHT22;49686;51.880;5.632;2023-02-17T10:56:53;9.30;99.90
63537;DHT22;49686;51.880;5.632;2023-02-17T10:59:24;9.30;99.90
63537;DHT22;49686;51.880;5.632;2023-02-17T11:01:56;9.30;99.90
63537;DHT22;49686;51.880;5.632;2023-02-17T11:04:23;9.40;99.90
63537;DHT22;49686;51.880;5.632;2023-02-17T11:06:52;9.50;99.90
63537;DHT22;49686;51.880;5.632;2023-02-17T11:09:22;9.50;99.90
63537;DHT22;49686;51.880;5.632;2023-02-17T11:11:54;9.50;99.90
63537;DHT22;49686;51.880;5.632;2023-02-17T11:14:25;9.60;99.90
63537;DHT22;49686;51.880;5.632;2023-02-17T11:16:56;9.60;99.90
63537;DHT22;49686;51.880;5.632;2023-02-17T11:19:25;9.60;99.90
63537;DHT22;49686;51.880;5.632;2023-02-17T11:21:54;9.50;99.90
63537;DHT22;49686;51.880;5.632;2023-02-17T11:24:23;9.50;99.90
63537;DHT22;49686;51.880;5.632;2023-02-17T11:26:57;9.50;99.90
63537;DHT22;49686;51.880;5.632;2023-02-17T11:29:25;9.50;99.90
63537;DHT22;49686;51.880;5.632;2023-02-17T11:31:57;9.60;99.90
63537;DHT22;49686;51.880;5.632;2023-02-17T11:34:26;9.70;99.90
63537;DHT22;49686;51.880;5.632;2023-02-17T11:36:56;9.70;99.90
63537;DHT22;49686;51.880;5.632;2023-02-17T11:39:24;9.80;99.90
63537;DHT22;49686;51.880;5.632;2023-02-17T11:41:51;9.70;99.90
63537;DHT22;49686;51.880;5.632;2023-02-17T11:44:22;9.70;99.90
63537;DHT22;49686;51.880;5.632;2023-02-17T11:47:01;9.70;99.90
63537;DHT22;49686;51.880;5.632;2023-02-17T11:50:00;9.60;99.90
63537;DHT22;49686;51.880;5.632;2023-02-17T11:52:42;9.60;99.90
63537;DHT22;49686;51.880;5.632;2023-02-17T11:55:20;9.50;99.90
63537;DHT22;49686;51.880;5.632;2023-02-17T11:58:07;9.50;99.90
63537;DHT22;49686;51.880;5.632;2023-02-17T12:00:42;9.40;99.90
63537;DHT22;49686;51.880;5.632;2023-02-17T12:03:39;9.40;99.90
63537;DHT22;49686;51.880;5.632;2023-02-17T12:06:13;9.40;99.90
63537;DHT22;49686;51.880;5.632;2023-02-17T12:08:58;9.40;99.90
63537;DHT22;49686;51.880;5.632;2023-02-17T12:11:31;9.40;99.90
63537;DHT22;49686;51.880;5.632;2023-02-17T12:14:11;9.40;99.90
63537;DHT22;49686;51.880;5.632;2023-02-17T12:16:47;9.50;99.90
63537;DHT22;49686;51.880;5.632;2023-02-17T12:19:38;9.60;99.90
63537;DHT22;49686;51.880;5.632;2023-02-17T12:22:16;9.50;99.90
63537;DHT22;49686;51.880;5.632;2023-02-17T12:24:56;9.50;99.90
63537;DHT22;49686;51.880;5.632;2023-02-17T12:27:37;9.50;99.90
63537;DHT22;49686;51.880;5.632;2023-02-17T12:30:22;9.50;99.90
63537;DHT22;49686;51.880;5.632;2023-02-17T12:33:02;9.40;99.90
63537;DHT22;49686;51.880;5.632;2023-02-17T12:35:39;9.40;99.90
63537;DHT22;49686;51.880;5.632;2023-02-17T12:38:12;9.40;99.90
63537;DHT22;49686;51.880;5.632;2023-02-17T12:40:44;9.40;99.90
63537;DHT22;49686;51.880;5.632;2023-02-17T12:43:22;9.30;99.90
63537;DHT22;49686;51.880;5.632;2023-02-17T12:45:50;9.30;99.90
63537;DHT22;49686;51.880;5.632;2023-02-17T12:48:23;9.30;99.90
63537;DHT22;49686;51.880;5.632;2023-02-17T12:50:54;9.30;99.90
63537;DHT22;49686;51.880;5.632;2023-02-17T12:53:27;9.30;99.90
63537;DHT22;49686;51.880;5.632;2023-02-17T12:56:02;9.20;99.90
63537;DHT22;49686;51.880;5.632;2023-02-17T12:58:34;9.30;99.90
63537;DHT22;49686;51.880;5.632;2023-02-17T13:01:04;9.20;99.90
63537;DHT22;49686;51.880;5.632;2023-02-17T13:03:34;9.20;99.90
63537;DHT22;49686;51.880;5.632;2023-02-17T13:06:05;9.10;99.90
63537;DHT22;49686;51.880;5.632;2023-02-17T13:08:39;9.10;99.90
63537;DHT22;49686;51.880;5.632;2023-02-17T13:11:11;9.10;99.90
63537;DHT22;49686;51.880;5.632;2023-02-17T13:13:40;9.10;99.90
63537;DHT22;49686;51.880;5.632;2023-02-17T13:16:08;9.10;99.90
63537;DHT22;49686;51.880;5.632;2023-02-17T13:18:37;9.10;99.90
63537;DHT22;49686;51.880;5.632;2023-02-17T13:21:14;9.10;99.90
63537;DHT22;49686;51.880;5.632;2023-02-17T13:23:43;9.00;99.90
63537;DHT22;49686;51.880;5.632;2023-02-17T13:29:30;9.00;99.90
63537;DHT22;49686;51.880;5.632;2023-02-17T13:31:59;9.10;99.90
63537;DHT22;49686;51.880;5.632;2023-02-17T13:34:32;9.10;99.90
63537;DHT22;49686;51.880;5.632;2023-02-17T13:37:12;9.00;99.90
63537;DHT22;49686;51.880;5.632;2023-02-17T13:39:40;9.00;99.90
63537;DHT22;49686;51.880;5.632;2023-02-17T13:42:35;9.00;99.90
63537;DHT22;49686;51.880;5.632;2023-02-17T13:45:23;8.80;99.90
63537;DHT22;49686;51.880;5.632;2023-02-17T13:47:52;8.80;99.90
63537;DHT22;49686;51.880;5.632;2023-02-17T13:50:31;8.70;99.90
63537;DHT22;49686;51.880;5.632;2023-02-17T13:52:59;8.70;99.90
63537;DHT22;49686;51.880;5.632;2023-02-17T13:55:26;8.70;99.90
63537;DHT22;49686;51.880;5.632;2023-02-17T13:57:54;8.80;99.90
63537;DHT22;49686;51.880;5.632;2023-02-17T14:00:24;8.90;99.90
63537;DHT22;49686;51.880;5.632;2023-02-17T14:02:55;9.00;99.90
63537;DHT22;49686;51.880;5.632;2023-02-17T14:05:26;9.00;99.90
63537;DHT22;49686;51.880;5.632;2023-02-17T14:07:57;9.10;99.90
63537;DHT22;49686;51.880;5.632;2023-02-17T14:10:26;9.10;99.90
63537;DHT22;49686;51.880;5.632;2023-02-17T14:12:54;9.10;99.90
63537;DHT22;49686;51.880;5.632;2023-02-17T14:15:25;9.20;99.90
63537;DHT22;49686;51.880;5.632;2023-02-17T14:17:52;9.20;99.90
63537;DHT22;49686;51.880;5.632;2023-02-17T14:20:31;9.20;99.90
63537;DHT22;49686;51.880;5.632;2023-02-17T14:23:03;9.20;99.90
63537;DHT22;49686;51.880;5.632;2023-02-17T14:25:33;9.30;99.90
63537;DHT22;49686;51.880;5.632;2023-02-17T14:28:00;9.30;99.90
63537;DHT22;49686;51.880;5.632;2023-02-17T14:30:31;9.30;99.90
63537;DHT22;49686;51.880;5.632;2023-02-17T14:33:04;9.40;99.90
63537;DHT22;49686;51.880;5.632;2023-02-17T14:35:32;9.40;99.90
63537;DHT22;49686;51.880;5.632;2023-02-17T14:38:15;9.40;99.90
63537;DHT22;49686;51.880;5.632;2023-02-17T14:40:44;9.30;99.90
63537;DHT22;49686;51.880;5.632;2023-02-17T14:43:11;9.40;99.90
63537;DHT22;49686;51.880;5.632;2023-02-17T14:45:40;9.50;99.90
63537;DHT22;49686;51.880;5.632;2023-02-17T14:48:08;9.50;99.90
63537;DHT22;49686;51.880;5.632;2023-02-17T14:50:35;9.40;99.90
63537;DHT22;49686;51.880;5.632;2023-02-17T14:53:02;9.40;99.90
63537;DHT22;49686;51.880;5.632;2023-02-17T14:55:33;9.40;99.90
63537;DHT22;49686;51.880;5.632;2023-02-17T14:58:01;9.50;99.90
63537;DHT22;49686;51.880;5.632;2023-02-17T15:00:29;9.50;99.90
63537;DHT22;49686;51.880;5.632;2023-02-17T15:02:57;9.60;99.90
63537;DHT22;49686;51.880;5.632;2023-02-17T15:05:24;9.60;99.90
63537;DHT22;49686;51.880;5.632;2023-02-17T15:07:51;9.60;99.90
63537;DHT22;49686;51.880;5.632;2023-02-17T15:10:23;9.60;99.90
63537;DHT22;49686;51.880;5.632;2023-02-17T15:12:51;9.70;99.90
63537;DHT22;49686;51.880;5.632;2023-02-17T15:15:18;9.60;99.90
63537;DHT22;49686;51.880;5.632;2023-02-17T15:17:46;9.60;99.90
63537;DHT22;49686;51.880;5.632;2023-02-17T15:20:17;9.60;99.90
63537;DHT22;49686;51.880;5.632;2023-02-17T15:22:43;9.50;99.90
63537;DHT22;49686;51.880;5.632;2023-02-17T15:25:15;9.50;99.90
63537;DHT22;49686;51.880;5.632;2023-02-17T15:27:43;9.50;99.90
63537;DHT22;49686;51.880;5.632;2023-02-17T15:30:13;9.40;99.90
63537;DHT22;49686;51.880;5.632;2023-02-17T15:32:41;9.40;99.90
63537;DHT22;49686;51.880;5.632;2023-02-17T15:35:15;9.30;99.90
63537;DHT22;49686;51.880;5.632;2023-02-17T15:37:43;9.30;99.90
63537;DHT22;49686;51.880;5.632;2023-02-17T15:40:13;9.50;99.90
63537;DHT22;49686;51.880;5.632;2023-02-17T15:42:40;9.40;99.90
63537;DHT22;49686;51.880;5.632;2023-02-17T15:45:10;9.30;99.90
63537;DHT22;49686;51.880;5.632;2023-02-17T15:47:38;9.30;99.90
63537;DHT22;49686;51.880;5.632;2023-02-17T15:50:10;9.30;99.90
63537;DHT22;49686;51.880;5.632;2023-02-17T15:52:39;9.20;99.90
63537;DHT22;49686;51.880;5.632;2023-02-17T15:55:06;9.10;99.90
63537;DHT22;49686;51.880;5.632;2023-02-17T15:57:44;9.20;99.90
63537;DHT22;49686;51.880;5.632;2023-02-17T16:00:17;9.10;99.90
63537;DHT22;49686;51.880;5.632;2023-02-17T16:02:44;9.10;99.90
63537;DHT22;49686;51.880;5.632;2023-02-17T16:05:13;9.10;99.90
63537;DHT22;49686;51.880;5.632;2023-02-17T16:07:41;9.10;99.90